地図

経路データ

SID SEASON NUMBER BASIN SUBBASIN NAME ISO_TIME NATURE LAT LON WMO_WIND WMO_PRES WMO_AGENCY TRACK_TYPE DIST2LAND LANDFALL IFLAG USA_AGENCY USA_ATCF_ID USA_LAT USA_LON USA_RECORD USA_STATUS USA_WIND USA_PRES USA_SSHS USA_R34_NE USA_R34_SE USA_R34_SW USA_R34_NW USA_R50_NE USA_R50_SE USA_R50_SW USA_R50_NW USA_R64_NE USA_R64_SE USA_R64_SW USA_R64_NW USA_POCI USA_ROCI USA_RMW USA_EYE TOKYO_LAT TOKYO_LON TOKYO_GRADE TOKYO_WIND TOKYO_PRES TOKYO_R50_DIR TOKYO_R50_LONG TOKYO_R50_SHORT TOKYO_R30_DIR TOKYO_R30_LONG TOKYO_R30_SHORT TOKYO_LAND CMA_LAT CMA_LON CMA_CAT CMA_WIND CMA_PRES HKO_LAT HKO_LON HKO_CAT HKO_WIND HKO_PRES NEWDELHI_LAT NEWDELHI_LON NEWDELHI_GRADE NEWDELHI_WIND NEWDELHI_PRES NEWDELHI_CI NEWDELHI_DP NEWDELHI_POCI REUNION_LAT REUNION_LON REUNION_TYPE REUNION_WIND REUNION_PRES REUNION_TNUM REUNION_CI REUNION_RMW REUNION_R34_NE REUNION_R34_SE REUNION_R34_SW REUNION_R34_NW REUNION_R50_NE REUNION_R50_SE REUNION_R50_SW REUNION_R50_NW REUNION_R64_NE REUNION_R64_SE REUNION_R64_SW REUNION_R64_NW BOM_LAT BOM_LON BOM_TYPE BOM_WIND BOM_PRES BOM_TNUM BOM_CI BOM_RMW BOM_R34_NE BOM_R34_SE BOM_R34_SW BOM_R34_NW BOM_R50_NE BOM_R50_SE BOM_R50_SW BOM_R50_NW BOM_R64_NE BOM_R64_SE BOM_R64_SW BOM_R64_NW BOM_ROCI BOM_POCI BOM_EYE BOM_POS_METHOD BOM_PRES_METHOD NADI_LAT NADI_LON NADI_CAT NADI_WIND NADI_PRES WELLINGTON_LAT WELLINGTON_LON WELLINGTON_WIND WELLINGTON_PRES DS824_LAT DS824_LON DS824_STAGE DS824_WIND DS824_PRES TD9636_LAT TD9636_LON TD9636_STAGE TD9636_WIND TD9636_PRES TD9635_LAT TD9635_LON TD9635_WIND TD9635_PRES TD9635_ROCI NEUMANN_LAT NEUMANN_LON NEUMANN_CLASS NEUMANN_WIND NEUMANN_PRES MLC_LAT MLC_LON MLC_CLASS MLC_WIND MLC_PRES USA_GUST BOM_GUST BOM_GUST_PER REUNION_GUST REUNION_GUST_PER USA_SEAHGT USA_SEARAD_NE USA_SEARAD_SE USA_SEARAD_SW USA_SEARAD_NW STORM_SPEED STORM_DIR
1979197N13314 1979 55 NA NA CLAUDETTE 1979-07-15 12:00:00 TS 12.5000 -46.3000 20 1014 hurdat_atl main 1070 1013 O_____________ hurdat_atl AL061979 12.5000 -46.3000 TD 20 1014 -1 21 278
1979197N13314 1979 55 NA NA CLAUDETTE 1979-07-15 15:00:00 TS 12.6358 -47.3523 main 1006 973 P_____________ AL061979 12.6358 -47.3523 TD 20 1014 -1 21 278
1979197N13314 1979 55 NA NA CLAUDETTE 1979-07-15 18:00:00 TS 12.8000 -48.4000 20 1014 hurdat_atl main 968 939 O_____________ hurdat_atl AL061979 12.8000 -48.4000 TD 20 1014 -1 21 281
1979197N13314 1979 55 NA NA CLAUDETTE 1979-07-15 21:00:00 TS 13.0323 -49.4304 main 939 932 P_____________ AL061979 13.0323 -49.4304 TD 22 1013 -1 20 287
1979197N13314 1979 55 NA NA CLAUDETTE 1979-07-16 00:00:00 TS 13.4000 -50.4000 25 1012 hurdat_atl main 937 932 O_____________ hurdat_atl AL061979 13.4000 -50.4000 TD 25 1012 -1 20 297
1979197N13314 1979 55 NA NA CLAUDETTE 1979-07-16 03:00:00 TS 13.9620 -51.2725 main 961 957 P_____________ AL061979 13.9620 -51.2725 TD 25 1012 -1 20 306
1979197N13314 1979 55 NA NA CLAUDETTE 1979-07-16 06:00:00 TS 14.6000 -52.1000 25 1012 hurdat_atl main 1001 1001 O_____________ hurdat_atl AL061979 14.6000 -52.1000 TD 25 1012 -1 20 307
1979197N13314 1979 55 NA NA CLAUDETTE 1979-07-16 09:00:00 TS 15.1797 -52.9502 main 1002 959 P_____________ AL061979 15.1797 -52.9502 TD 27 1011 -1 20 304
1979197N13314 1979 55 NA NA CLAUDETTE 1979-07-16 12:00:00 TS 15.7000 -53.8000 30 1011 hurdat_atl main 959 919 O_____________ hurdat_atl AL061979 15.7000 -53.8000 TD 30 1011 -1 19 301
1979197N13314 1979 55 NA NA CLAUDETTE 1979-07-16 15:00:00 TS 16.1446 -54.6503 main 911 879 P_____________ AL061979 16.1446 -54.6503 TD 30 1011 -1 18 296
1979197N13314 1979 55 NA NA CLAUDETTE 1979-07-16 18:00:00 TS 16.5000 -55.5000 30 1011 hurdat_atl main 880 842 O_____________ hurdat_atl AL061979 16.5000 -55.5000 TD 30 1011 -1 18 291
1979197N13314 1979 55 NA NA CLAUDETTE 1979-07-16 21:00:00 TS 16.7722 -56.3580 main 844 815 P_____________ AL061979 16.7722 -56.3580 TD 30 1011 -1 17 287
1979197N13314 1979 55 NA NA CLAUDETTE 1979-07-17 00:00:00 TS 17.0000 -57.2000 30 1011 hurdat_atl main 815 800 O_____________ hurdat_atl AL061979 17.0000 -57.2000 TD 30 1011 -1 17 287
1979197N13314 1979 55 NA NA CLAUDETTE 1979-07-17 03:00:00 TS 17.2647 -58.0150 main 806 724 P_____________ AL061979 17.2647 -58.0150 TD 30 1011 -1 16 288
1979197N13314 1979 55 NA NA CLAUDETTE 1979-07-17 06:00:00 TS 17.5000 -58.8000 30 1011 hurdat_atl main 724 647 O_____________ hurdat_atl AL061979 17.5000 -58.8000 TD 30 1011 -1 15 286
1979197N13314 1979 55 NA NA CLAUDETTE 1979-07-17 09:00:00 TS 17.6719 -59.5353 main 647 562 P_____________ AL061979 17.6719 -59.5353 TD 32 1011 -1 15 282
1979197N13314 1979 55 NA NA CLAUDETTE 1979-07-17 12:00:00 TS 17.8000 -60.3000 35 1011 hurdat_atl main 562 476 O_____________ hurdat_atl AL061979 17.8000 -60.3000 TS 35 1011 0 16 279
1979197N13314 1979 55 NA CS CLAUDETTE 1979-07-17 15:00:00 TS 17.9075 -61.1852 main 466 370 P_____________ AL061979 17.9075 -61.1852 TS 37 1010 0 17 277
1979197N13314 1979 55 NA CS CLAUDETTE 1979-07-17 18:00:00 TS 18.0000 -62.1000 40 1010 hurdat_atl main 370 285 O_____________ hurdat_atl AL061979 18.0000 -62.1000 TS 40 1010 0 17 277
1979197N13314 1979 55 NA CS CLAUDETTE 1979-07-17 21:00:00 TS 18.1071 -62.9650 main 274 190 P_____________ AL061979 18.1071 -62.9650 TS 37 1010 0 16 277
1979197N13314 1979 55 NA CS CLAUDETTE 1979-07-18 00:00:00 TS 18.2000 -63.8000 35 1010 hurdat_atl main 190 105 O_____________ hurdat_atl AL061979 18.2000 -63.8000 TS 35 1010 0 16 275
1979197N13314 1979 55 NA CS CLAUDETTE 1979-07-18 03:00:00 TS 18.2571 -64.6077 main 105 21 P_____________ AL061979 18.2571 -64.6077 TS 32 1010 -1 15 274
1979197N13314 1979 55 NA CS CLAUDETTE 1979-07-18 06:00:00 TS 18.3000 -65.4000 30 1011 hurdat_atl main 21 0 O_____________ hurdat_atl AL061979 18.3000 -65.4000 TD 30 1011 -1 15 273
1979197N13314 1979 55 NA NA CLAUDETTE 1979-07-18 09:00:00 TS 18.3498 -66.2075 main 0 0 P_____________ AL061979 18.3498 -66.2075 TD 30 1011 -1 15 274
1979197N13314 1979 55 NA NA CLAUDETTE 1979-07-18 12:00:00 TS 18.4000 -67.0000 30 1011 hurdat_atl main 0 0 O_____________ hurdat_atl AL061979 18.4000 -67.0000 TD 30 1011 -1 15 274
1979197N13314 1979 55 NA CS CLAUDETTE 1979-07-18 15:00:00 TS 18.4425 -67.7951 main 52 0 P_____________ AL061979 18.4425 -67.7951 TD 27 1011 -1 14 274
1979197N13314 1979 55 NA NA CLAUDETTE 1979-07-18 18:00:00 TS 18.5000 -68.5000 25 1012 hurdat_atl main 0 0 O_____________ hurdat_atl AL061979 18.5000 -68.5000 TD 25 1012 -1 12 278
1979197N13314 1979 55 NA NA CLAUDETTE 1979-07-18 21:00:00 TS 18.5995 -69.0375 main 0 0 P_____________ AL061979 18.5995 -69.0375 TD 22 1012 -1 10 282
1979197N13314 1979 55 NA NA CLAUDETTE 1979-07-19 00:00:00 TS 18.7000 -69.5000 20 1012 hurdat_atl main 0 0 O_____________ hurdat_atl AL061979 18.7000 -69.5000 TD 20 1012 -1 9 280
1979197N13314 1979 55 NA NA CLAUDETTE 1979-07-19 03:00:00 TS 18.7649 -70.0075 main 0 0 P_____________ AL061979 18.7649 -70.0075 TD 20 1012 -1 10 276
1979197N13314 1979 55 NA NA CLAUDETTE 1979-07-19 06:00:00 TS 18.8000 -70.5000 20 1012 hurdat_atl main 0 0 O_____________ hurdat_atl AL061979 18.8000 -70.5000 TD 20 1012 -1 9 272
1979197N13314 1979 55 NA NA CLAUDETTE 1979-07-19 09:00:00 TS 18.7923 -70.9502 main 0 0 P_____________ AL061979 18.7923 -70.9502 TD 20 1012 -1 9 270
1979197N13314 1979 55 NA NA CLAUDETTE 1979-07-19 12:00:00 TS 18.8000 -71.4000 20 1012 hurdat_atl main 0 0 O_____________ hurdat_atl AL061979 18.8000 -71.4000 TD 20 1012 -1 9 277
1979197N13314 1979 55 NA NA CLAUDETTE 1979-07-19 15:00:00 TS 18.9000 -71.8998 main 0 0 P_____________ AL061979 18.9000 -71.8998 TD 20 1012 -1 10 282
1979197N13314 1979 55 NA NA CLAUDETTE 1979-07-19 18:00:00 TS 19.0000 -72.4000 20 1012 hurdat_atl main 0 0 O_____________ hurdat_atl AL061979 19.0000 -72.4000 TD 20 1012 -1 9 277
1979197N13314 1979 55 NA CS CLAUDETTE 1979-07-19 21:00:00 TS 18.9995 -72.8203 main 0 0 P_____________ AL061979 18.9995 -72.8203 TD 20 1012 -1 9 270
1979197N13314 1979 55 NA CS CLAUDETTE 1979-07-20 00:00:00 TS 19.0000 -73.3000 20 1013 hurdat_atl main 52 52 O_____________ hurdat_atl AL061979 19.0000 -73.3000 TD 20 1013 -1 10 274
1979197N13314 1979 55 NA CS CLAUDETTE 1979-07-20 03:00:00 TS 19.0770 -73.9177 main 56 55 P_____________ AL061979 19.0770 -73.9177 TD 20 1013 -1 13 279
1979197N13314 1979 55 NA CS CLAUDETTE 1979-07-20 06:00:00 TS 19.2000 -74.7000 20 1013 hurdat_atl main 74 67 O_____________ hurdat_atl AL061979 19.2000 -74.7000 TD 20 1013 -1 17 279
1979197N13314 1979 55 NA CS CLAUDETTE 1979-07-20 09:00:00 TS 19.3276 -75.6553 main 67 55 P_____________ AL061979 19.3276 -75.6553 TD 20 1013 -1 19 279
1979197N13314 1979 55 NA CS CLAUDETTE 1979-07-20 12:00:00 TS 19.5000 -76.7000 20 1013 hurdat_atl main 54 11 O_____________ hurdat_atl AL061979 19.5000 -76.7000 TD 20 1013 -1 20 282
1979197N13314 1979 55 NA CS CLAUDETTE 1979-07-20 15:00:00 TS 19.7273 -77.7225 main 11 10 P_____________ AL061979 19.7273 -77.7225 TD 20 1013 -1 19 285
1979197N13314 1979 55 NA CS CLAUDETTE 1979-07-20 18:00:00 TS 20.0000 -78.7000 20 1013 hurdat_atl main 106 106 O_____________ hurdat_atl AL061979 20.0000 -78.7000 TD 20 1013 -1 18 288
1979197N13314 1979 55 NA CS CLAUDETTE 1979-07-20 21:00:00 TS 20.2766 -79.5656 main 138 126 P_____________ AL061979 20.2766 -79.5656 TD 20 1013 -1 17 291
1979197N13314 1979 55 NA CS CLAUDETTE 1979-07-21 00:00:00 TS 20.6000 -80.4000 20 1013 hurdat_atl main 129 112 O_____________ hurdat_atl AL061979 20.6000 -80.4000 TD 20 1013 -1 18 293
1979197N13314 1979 55 NA CS CLAUDETTE 1979-07-21 03:00:00 TS 20.9927 -81.3297 main 112 38 P_____________ AL061979 20.9927 -81.3297 TD 22 1013 -1 19 295
1979197N13314 1979 55 NA CS CLAUDETTE 1979-07-21 06:00:00 TS 21.4000 -82.2000 25 1013 hurdat_atl main 38 0 O_____________ hurdat_atl AL061979 21.4000 -82.2000 TD 25 1013 -1 16 298
1979197N13314 1979 55 NA CS CLAUDETTE 1979-07-21 09:00:00 TS 21.7566 -82.8733 main 0 0 P_____________ AL061979 21.7566 -82.8733 TD 27 1012 -1 14 300
1979197N13314 1979 55 NA CS CLAUDETTE 1979-07-21 12:00:00 TS 22.1000 -83.5000 30 1012 hurdat_atl main 11 0 O_____________ hurdat_atl AL061979 22.1000 -83.5000 TD 30 1012 -1 14 299
1979197N13314 1979 55 NA NA CLAUDETTE 1979-07-21 15:00:00 TS 22.4499 -84.2353 main 0 0 P_____________ AL061979 22.4499 -84.2353 TD 30 1011 -1 16 297
1979197N13314 1979 55 NA GM CLAUDETTE 1979-07-21 18:00:00 TS 22.8000 -85.0000 30 1010 hurdat_atl main 83 83 O_____________ hurdat_atl AL061979 22.8000 -85.0000 TD 30 1010 -1 16 296
1979197N13314 1979 55 NA GM CLAUDETTE 1979-07-21 21:00:00 TS 23.1652 -85.7948 main 166 166 P_____________ AL061979 23.1652 -85.7948 TD 30 1008 -1 15 297
1979197N13314 1979 55 NA GM CLAUDETTE 1979-07-22 00:00:00 TS 23.5000 -86.5000 30 1007 hurdat_atl main 229 227 O_____________ hurdat_atl AL061979 23.5000 -86.5000 TD 30 1007 -1 12 299
1979197N13314 1979 55 NA GM CLAUDETTE 1979-07-22 03:00:00 TS 23.7642 -86.9807 main 257 257 P_____________ AL061979 23.7642 -86.9807 TD 30 1007 -1 10 301
1979197N13314 1979 55 NA GM CLAUDETTE 1979-07-22 06:00:00 TS 24.0000 -87.4000 30 1007 hurdat_atl main 281 280 O_____________ hurdat_atl AL061979 24.0000 -87.4000 TD 30 1007 -1 10 299
1979197N13314 1979 55 NA GM CLAUDETTE 1979-07-22 09:00:00 TS 24.2500 -87.9426 main 312 312 P_____________ AL061979 24.2500 -87.9426 TD 30 1007 -1 11 296
1979197N13314 1979 55 NA GM CLAUDETTE 1979-07-22 12:00:00 TS 24.5000 -88.5000 30 1007 hurdat_atl main 335 335 O_____________ hurdat_atl AL061979 24.5000 -88.5000 TD 30 1007 -1 11 298
1979197N13314 1979 55 NA GM CLAUDETTE 1979-07-22 15:00:00 TS 24.7573 -89.0077 main 371 371 P_____________ AL061979 24.7573 -89.0077 TD 30 1006 -1 10 299
1979197N13314 1979 55 NA GM CLAUDETTE 1979-07-22 18:00:00 TS 25.0000 -89.5000 30 1006 hurdat_atl main 401 401 O_____________ hurdat_atl AL061979 25.0000 -89.5000 TD 30 1006 -1 10 296
1979197N13314 1979 55 NA GM CLAUDETTE 1979-07-22 21:00:00 TS 25.1999 -90.0078 main 433 413 P_____________ AL061979 25.1999 -90.0078 TD 30 1005 -1 10 294
1979197N13314 1979 55 NA GM CLAUDETTE 1979-07-23 00:00:00 TS 25.4000 -90.5000 30 1005 hurdat_atl main 413 390 O_____________ hurdat_atl AL061979 25.4000 -90.5000 TD 30 1005 -1 10 297
1979197N13314 1979 55 NA GM CLAUDETTE 1979-07-23 03:00:00 TS 25.6422 -90.9502 main 390 359 P_____________ AL061979 25.6422 -90.9502 TD 30 1004 -1 10 302
1979197N13314 1979 55 NA GM CLAUDETTE 1979-07-23 06:00:00 TS 25.9000 -91.4000 30 1004 hurdat_atl main 360 344 O_____________ hurdat_atl AL061979 25.9000 -91.4000 TD 30 1004 -1 10 300
1979197N13314 1979 55 NA GM CLAUDETTE 1979-07-23 09:00:00 TS 26.1502 -91.9299 main 338 331 P_____________ AL061979 26.1502 -91.9299 TD 32 1003 -1 10 299
1979197N13314 1979 55 NA GM CLAUDETTE 1979-07-23 12:00:00 TS 26.4000 -92.4000 35 1003 hurdat_atl main 335 325 O_____________ hurdat_atl AL061979 26.4000 -92.4000 TS 35 1003 0 8 306
1979197N13314 1979 55 NA GM CLAUDETTE 1979-07-23 15:00:00 TS 26.6422 -92.6879 main 326 296 P_____________ AL061979 26.6422 -92.6879 TS 35 1003 0 7 318
1979197N13314 1979 55 NA GM CLAUDETTE 1979-07-23 18:00:00 TS 26.9000 -92.9000 35 1003 hurdat_atl main 296 271 O_____________ hurdat_atl AL061979 26.9000 -92.9000 TS 35 1003 0 7 321
1979197N13314 1979 55 NA GM CLAUDETTE 1979-07-23 21:00:00 TS 27.1776 -93.1799 main 271 243 P_____________ AL061979 27.1776 -93.1799 TS 35 1003 0 7 323
1979197N13314 1979 55 NA GM CLAUDETTE 1979-07-24 00:00:00 TS 27.5000 -93.4000 35 1003 hurdat_atl main 243 203 O_____________ hurdat_atl AL061979 27.5000 -93.4000 TS 35 1003 0 8 340
1979197N13314 1979 55 NA GM CLAUDETTE 1979-07-24 03:00:00 TS 27.9074 -93.4728 main 203 158 P_____________ AL061979 27.9074 -93.4728 TS 37 1003 0 8 354
1979197N13314 1979 55 NA GM CLAUDETTE 1979-07-24 06:00:00 TS 28.3000 -93.5000 40 1003 hurdat_atl main 158 135 O_____________ hurdat_atl AL061979 28.3000 -93.5000 TS 40 1003 0 7 351
1979197N13314 1979 55 NA GM CLAUDETTE 1979-07-24 09:00:00 TS 28.5500 -93.5926 main 124 100 P_____________ AL061979 28.5500 -93.5926 TS 42 1002 0 5 340
1979197N13314 1979 55 NA GM CLAUDETTE 1979-07-24 12:00:00 TS 28.8000 -93.7000 45 1002 hurdat_atl main 100 55 O_____________ hurdat_atl AL061979 28.8000 -93.7000 TS 45 1002 0 7 343
1979197N13314 1979 55 NA GM CLAUDETTE 1979-07-24 15:00:00 TS 29.1850 -93.8148 main 55 11 P_____________ AL061979 29.1850 -93.8148 TS 45 1001 0 8 348
1979197N13314 1979 55 NA GM CLAUDETTE 1979-07-24 18:00:00 TS 29.6000 -93.9000 45 1000 hurdat_atl main 11 0 O_____________ hurdat_atl AL061979 29.6000 -93.9000 TS 45 1000 0 8 356
1979197N13314 1979 55 NA GM CLAUDETTE 1979-07-24 21:00:00 TS 30.0099 -93.8853 main 0 0 P_____________ AL061979 30.0099 -93.8853 TS 42 998 0 7 0
1979197N13314 1979 55 NA NA CLAUDETTE 1979-07-25 00:00:00 TS 30.3000 -93.9000 40 997 hurdat_atl main 0 0 O_____________ hurdat_atl AL061979 30.3000 -93.9000 TS 40 997 0 4 335
1979197N13314 1979 55 NA NA CLAUDETTE 1979-07-25 03:00:00 TS 30.3375 -94.0627 main 0 0 P_____________ AL061979 30.3375 -94.0627 TS 37 997 0 3 270
1979197N13314 1979 55 NA NA CLAUDETTE 1979-07-25 06:00:00 TS 30.3000 -94.3000 35 998 hurdat_atl main 0 0 O_____________ hurdat_atl AL061979 30.3000 -94.3000 TS 35 998 0 4 278
1979197N13314 1979 55 NA NA CLAUDETTE 1979-07-25 09:00:00 TS 30.4000 -94.5498 main 0 0 P_____________ AL061979 30.4000 -94.5498 TS 32 999 -1 5 295
1979197N13314 1979 55 NA NA CLAUDETTE 1979-07-25 12:00:00 TS 30.5000 -94.8000 30 1000 hurdat_atl main 0 0 O_____________ hurdat_atl AL061979 30.5000 -94.8000 TD 30 1000 -1 4 288
1979197N13314 1979 55 NA NA CLAUDETTE 1979-07-25 15:00:00 TS 30.5375 -95.0301 main 0 0 P_____________ AL061979 30.5375 -95.0301 TD 30 1000 -1 3 270
1979197N13314 1979 55 NA NA CLAUDETTE 1979-07-25 18:00:00 TS 30.5000 -95.2000 30 1001 hurdat_atl main 0 0 O_____________ hurdat_atl AL061979 30.5000 -95.2000 TD 30 1001 -1 3 226
1979197N13314 1979 55 NA NA CLAUDETTE 1979-07-25 21:00:00 TS 30.3199 -95.2950 main 0 0 P_____________ AL061979 30.3199 -95.2950 TD 30 1001 -1 3 196
1979197N13314 1979 55 NA NA CLAUDETTE 1979-07-26 00:00:00 TS 30.2000 -95.3000 30 1001 hurdat_atl main 0 0 O_____________ hurdat_atl AL061979 30.2000 -95.3000 TD 30 1001 -1 1 66
1979197N13314 1979 55 NA NA CLAUDETTE 1979-07-26 03:00:00 TS 30.3625 -95.1853 main 0 0 P_____________ AL061979 30.3625 -95.1853 TD 30 1001 -1 4 23
1979197N13314 1979 55 NA NA CLAUDETTE 1979-07-26 06:00:00 TS 30.6000 -95.1000 30 1002 hurdat_atl main 0 0 O_____________ hurdat_atl AL061979 30.6000 -95.1000 TD 30 1002 -1 3 0
1979197N13314 1979 55 NA NA CLAUDETTE 1979-07-26 09:00:00 TS 30.6923 -95.1678 main 0 0 P_____________ AL061979 30.6923 -95.1678 TD 27 1002 -1 3 307
1979197N13314 1979 55 NA NA CLAUDETTE 1979-07-26 12:00:00 TS 30.8000 -95.4000 25 1003 hurdat_atl main 0 0 O_____________ hurdat_atl AL061979 30.8000 -95.4000 TD 25 1003 -1 7 300
1979197N13314 1979 55 NA NA CLAUDETTE 1979-07-26 15:00:00 TS 31.0281 -95.8494 main 0 0 P_____________ AL061979 31.0281 -95.8494 TD 25 1003 -1 9 303
1979197N13314 1979 55 NA NA CLAUDETTE 1979-07-26 18:00:00 TS 31.3000 -96.3000 25 1004 hurdat_atl main 0 0 O_____________ hurdat_atl AL061979 31.3000 -96.3000 TD 25 1004 -1 8 310
1979197N13314 1979 55 NA NA CLAUDETTE 1979-07-26 21:00:00 TS 31.5197 -96.5326 main 0 0 P_____________ AL061979 31.5197 -96.5326 TD 22 1004 -1 6 333
1979197N13314 1979 55 NA NA CLAUDETTE 1979-07-27 00:00:00 TS 31.8000 -96.6000 20 1004 hurdat_atl main 0 0 O_____________ hurdat_atl AL061979 31.8000 -96.6000 TD 20 1004 -1 7 359
1979197N13314 1979 55 NA NA CLAUDETTE 1979-07-27 03:00:00 TS 32.1899 -96.5598 main 0 0 P_____________ AL061979 32.1899 -96.5598 TD 20 1005 -1 9 10
1979197N13314 1979 55 NA NA CLAUDETTE 1979-07-27 06:00:00 TS 32.7000 -96.4000 20 1006 hurdat_atl main 0 0 O_____________ hurdat_atl AL061979 32.7000 -96.4000 TD 20 1006 -1 12 16
1979197N13314 1979 55 NA NA CLAUDETTE 1979-07-27 09:00:00 TS 33.3200 -96.1801 main 0 0 P_____________ AL061979 33.3200 -96.1801 TD 17 1006 -1 14 18
1979197N13314 1979 55 NA NA CLAUDETTE 1979-07-27 12:00:00 TS 34.0000 -95.9000 15 1007 hurdat_atl main 0 0 O_____________ hurdat_atl AL061979 34.0000 -95.9000 TD 15 1007 -1 14 19
1979197N13314 1979 55 NA NA CLAUDETTE 1979-07-27 15:00:00 TS 34.6649 -95.6147 main 0 0 P_____________ AL061979 34.6649 -95.6147 TD 15 1007 -1 14 21
1979197N13314 1979 55 NA NA CLAUDETTE 1979-07-27 18:00:00 TS 35.3000 -95.3000 15 1007 hurdat_atl main 0 0 O_____________ hurdat_atl AL061979 35.3000 -95.3000 TD 15 1007 -1 13 23
1979197N13314 1979 55 NA NA CLAUDETTE 1979-07-27 21:00:00 TS 35.8421 -94.9932 main 0 0 P_____________ AL061979 35.8421 -94.9932 TD 15 1007 -1 12 27
1979197N13314 1979 55 NA NA CLAUDETTE 1979-07-28 00:00:00 TS 36.4000 -94.6000 15 1007 hurdat_atl main 0 0 O_____________ hurdat_atl AL061979 36.4000 -94.6000 TD 15 1007 -1 15 29
1979197N13314 1979 55 NA NA CLAUDETTE 1979-07-28 03:00:00 TS 37.1208 -94.1270 main 0 0 P_____________ AL061979 37.1208 -94.1270 TD 15 1007 -1 17 34
1979197N13314 1979 55 NA NA CLAUDETTE 1979-07-28 06:00:00 TS 37.8000 -93.4000 15 1008 hurdat_atl main 0 0 O_____________ hurdat_atl AL061979 37.8000 -93.4000 TD 15 1008 -1 18 50
1979197N13314 1979 55 NA NA CLAUDETTE 1979-07-28 09:00:00 TS 38.2895 -92.3355 main 0 0 P_____________ AL061979 38.2895 -92.3355 TD 15 1008 -1 20 67
1979197N13314 1979 55 NA NA CLAUDETTE 1979-07-28 12:00:00 TS 38.6000 -91.0000 15 1009 hurdat_atl main 0 0 O_____________ hurdat_atl AL061979 38.6000 -91.0000 TD 15 1009 -1 22 78
1979197N13314 1979 55 NA NA CLAUDETTE 1979-07-28 15:00:00 TS 38.7452 -89.5274 main 0 0 P_____________ AL061979 38.7452 -89.5274 TD 15 1009 -1 23 85
1979197N13314 1979 55 NA NA CLAUDETTE 1979-07-28 18:00:00 TS 38.8000 -88.0000 15 1009 hurdat_atl main 0 0 O_____________ hurdat_atl AL061979 38.8000 -88.0000 TD 15 1009 -1 23 86
1979197N13314 1979 55 NA NA CLAUDETTE 1979-07-28 21:00:00 TS 38.9138 -86.5556 main 0 0 P_____________ AL061979 38.9138 -86.5556 TD 15 1009 -1 22 85
1979197N13314 1979 55 NA NA CLAUDETTE 1979-07-29 00:00:00 TS 39.0000 -85.2000 15 1010 hurdat_atl main 0 0 O_____________ hurdat_atl AL061979 39.0000 -85.2000 TD 15 1010 -1 20 87
1979197N13314 1979 55 NA NA CLAUDETTE 1979-07-29 03:00:00 TS 39.0123 -83.9842 main 0 0 P_____________ AL061979 39.0123 -83.9842 TD 15 1010 -1 19 90
1979197N13314 1979 55 NA NA CLAUDETTE 1979-07-29 06:00:00 TS 39.0000 -82.8000 15 1011 hurdat_atl main 0 0 O_____________ hurdat_atl AL061979 39.0000 -82.8000 TD 15 1011 -1 19 90
1979197N13314 1979 55 NA NA CLAUDETTE 1979-07-29 09:00:00 TS 38.9989 -81.5305 main 0 0 P_____________ AL061979 38.9989 -81.5305 TD 15 1011 -1 20 90
1979197N13314 1979 55 NA NA CLAUDETTE 1979-07-29 12:00:00 TS 39.0000 -80.2000 15 1011 hurdat_atl main 0 O_____________ hurdat_atl AL061979 39.0000 -80.2000 TD 15 1011 -1 21 90

IBTrACS Databaseについて

本データベースは、米国NOAAが公開する1842年以降の世界の熱帯低気圧のベストトラックデータアーカイブInternational Best Track Archive for Climate Stewardship (IBTrACS)を、ウェブで閲覧しやすい形式に変換したものです。

最終更新日:2021-10-08